• Join FlightAware (Why Join?)
  • Login
  • US Flag 
06:55AM EDT


 

Airport Tracker/Info


-or-


 

Live Flight TrackerFlight Track Log ✈ AAL9737 ✈ 22-Aug-2013 ✈ KGRK - KDFW

Flight Track Log - Related Links

Times and Time Zones

All times are in EDT time to prevent confusion due to time zone crossing. See the AAL9737 flight status page for this flight to view local times or setup timezone preferences in your user account.

Time Position Orientation Groundspeed Altitude Reporting Facility
EDT Latitude Longitude Course Direction KTS MPH feet Rate Location/Type
05:11PM 31.2120 -98.1780 304° West 345 397 11,900  Level FlightAware
05:12PM 31.2420 -98.2310 304° West 345 397 11,900  Level FlightAware
05:12PM 31.2690 -98.2780 304° West 345 397 11,900 1,260 Level FlightAware
05:13PM 31.3310 -98.2350 31° Northeast 355 409 13,000 3,300 Climbing FlightAware
05:13PM 31.3870 -98.2120 19° North 365 420 14,600 1,620 Climbing FlightAware
05:14PM 31.4410 -98.1870 22° Northeast 367 422 14,900 240 Climbing FlightAware
05:14PM 31.4960 -98.1520 28° Northeast 368 423 14,900  Level FlightAware
05:15PM 31.5480 -98.1180 29° Northeast 326 375 14,900 420 Level FlightAware
05:15PM 31.5860 -98.0930 29° Northeast 308 354 15,400 2,160 Climbing FlightAware
05:16PM 31.6330 -98.0620 29° Northeast 312 359 17,400 2,880 Climbing FlightAware
05:17PM 31.6730 -98.0360 29° Northeast 320 368 18,800 2,640 Climbing FlightAware
05:17PM 31.7210 -98.0050 29° Northeast 329 379 20,400 1,800 Climbing FlightAware
05:18PM 31.7690 -97.9730 30° Northeast 327 376 21,000 480 Climbing FlightAware
05:18PM 31.8160 -97.9430 28° Northeast 329 379 21,000  Level FlightAware
05:19PM 31.8660 -97.9090 30° Northeast 326 375 21,000  Level FlightAware
05:20PM 31.9060 -97.8830 29° Northeast 330 380 21,000 -360 Level FlightAware
05:20PM 31.9570 -97.8490 29° Northeast 351 404 20,600 -2,100 Descending FlightAware
05:21PM 32.0090 -97.8150 29° Northeast 372 428 18,500 -3,300 Descending FlightAware
05:21PM 32.0660 -97.7770 29° Northeast 382 440 16,700 -2,760 Descending FlightAware
05:22PM 32.1120 -97.7440 31° Northeast 378 435 15,500 -1,680 Descending FlightAware
05:22PM 32.1540 -97.6920 46° Northeast 353 406 14,800 -1,380 Descending FlightAware
05:23PM 32.1810 -97.6560 48° Northeast 342 394 14,100 -1,860 Descending FlightAware
05:23PM 32.1980 -97.6450 29° Northeast 339 390 13,700 -1,920 Descending FlightAware
05:24PM 32.2420 -97.6230 23° Northeast 336 387 12,700 -1,440 Descending FlightAware
05:24PM 32.3000 -97.5930 24° Northeast 334 384 12,000 -1,020 Descending FlightAware
05:25PM 32.3440 -97.5710 23° Northeast 329 379 11,500 -960 Descending FlightAware
05:25PM 32.3900 -97.5480 23° Northeast 323 372 11,000 -600 Descending FlightAware
05:26PM 32.4340 -97.5260 23° Northeast 321 369 10,900 -120 Descending FlightAware
05:27PM 32.4930 -97.5010 20° North 325 374 10,900  Level FlightAware
05:27PM 32.5350 -97.4710 31° Northeast 323 372 10,900  Level FlightAware
05:28PM 32.5810 -97.4400 30° Northeast 325 374 10,900  Level FlightAware
05:28PM 32.6090 -97.4150 37° Northeast 314 361 10,900  Level FlightAware
05:29PM 32.6350 -97.3710 55° Northeast 302 348 10,900  Level FlightAware
05:29PM 32.6630 -97.3220 56° Northeast 303 349 10,900  Level FlightAware
05:30PM 32.6920 -97.2710 56° Northeast 302 348 10,900  Level FlightAware
05:30PM 32.7200 -97.2230 55° Northeast 285 328 10,900  Level FlightAware
05:31PM 32.7420 -97.1850 55° Northeast 256 295 10,900  Level FlightAware
05:31PM 32.7570 -97.1720 36° Northeast 250 288 10,900 -240 Level FlightAware
05:31PM 32.7690 -97.1700 North 252 290 10,800 -1,440 Descending FlightAware
05:32PM 32.8150 -97.1680 North 247 284 9,700 -1,740 Descending FlightAware
05:32PM 32.8290 -97.1680 360° North 248 285 9,300 -1,980 Descending FlightAware
05:33PM 32.8530 -97.1670 North 248 285 8,600 -2,100 Descending FlightAware
05:33PM 32.8800 -97.1670 360° North 247 284 7,800 -2,160 Descending FlightAware
05:33PM 32.9020 -97.1660 North 248 285 7,100 -1,680 Descending FlightAware
05:34PM 32.9270 -97.1660 360° North 249 287 6,600 -1,320 Descending FlightAware
05:34PM 32.9490 -97.1650 North 246 283 6,200 -1,320 Descending FlightAware
05:34PM 32.9720 -97.1620 North 242 278 5,800 -1,260 Descending FlightAware
05:35PM 32.9970 -97.1570 10° North 240 276 5,300 -1,380 Descending FlightAware
05:35PM 33.0200 -97.1520 10° North 240 276 4,800 -1,500 Descending FlightAware
05:35PM 33.0370 -97.1450 19° North 241 277 4,400 -1,080 Descending FlightAware
05:36PM 33.0450 -97.1340 49° Northeast 231 266 4,300 -900 Descending FlightAware
05:36PM 33.0480 -97.1240 70° East 221 254 4,100 -960 Descending FlightAware
05:36PM 33.0480 -97.1190 90° East 218 251 4,100 -240 Level FlightAware
05:36PM 33.0470 -97.0920 93° East 204 235 4,000 -720 Descending FlightAware
05:36PM 33.0450 -97.0790 100° East 195 224 3,700 -1,200 Descending FlightAware
05:36PM 33.0400 -97.0720 130° Southeast 192 221 3,600 -780 Descending FlightAware
05:37PM 33.0350 -97.0660 135° Southeast 188 216 3,500 -1,200 Descending FlightAware
05:37PM 33.0180 -97.0560 154° Southeast 188 216 3,000 -1,440 Descending FlightAware
05:37PM 33.0080 -97.0550 175° South 186 214 2,700 -1,620 Descending FlightAware
05:37PM 32.9920 -97.0540 177° South 177 204 2,200 -1,440 Descending FlightAware
05:38PM 32.9710 -97.0540 180° South 169 194 1,600 -780 Descending FlightAware
05:39PM 32.9470 -97.0540 180° South 166 191 1,400 -360 Descending FlightAware